PWSweather.com
Personal Weather Stations
Station Observations

MakarauRodneyNZ

Lat: -36.52421, Lon: 174.47572

Elevation: 606

Station Type: Davis VP2

http://kaiparaweather.dynu.net/index.php

High Low Average
Temperature 62.6°F17.0°C 53.2°F11.8°C 57.2°F14.0°C
Dew Point 54.0°F12.2°C 49.5°F9.7°C 51.6°F10.9°C
Winds 9.2 mph 14.8 kmh Calm Calm 3.0 mph S4.8 kmh S
Wind Gusts 12.7 mph20.4 kmh -- 5.0 mph8.0 kmh
Humidity 89% 72% 82%
Pressure 29.70 in1005.8 mb 29.56 in1001.0 mb -
Precipitation 0.03 in0.8 mm - -
Hour Temp Dew Point Humidity Winds Wind Gusts Pressure Precip Precip Rate Daily Precip Total
12:00 AM 51.4°F10.8°C 48.9°F9.4°C 91% Calm Calm -- 29.58 in1001.7 mb - 0.00 in0.0 mm 0.00 in0.0 mm
12:10 AM 51.3°F10.7°C 48.8°F9.3°C 91% Calm Calm -- 29.58 in1001.7 mb - 0.00 in0.0 mm 0.00 in0.0 mm
12:20 AM 51.2°F10.7°C 48.7°F9.3°C 91% Calm Calm -- 29.58 in1001.7 mb - 0.00 in0.0 mm 0.00 in0.0 mm
12:30 AM 51.4°F10.8°C 48.9°F9.4°C 91% Calm Calm -- 29.58 in1001.7 mb - 0.00 in0.0 mm 0.00 in0.0 mm
12:40 AM 51.4°F10.8°C 48.8°F9.3°C 91% Calm Calm -- 29.58 in1001.7 mb - 0.00 in0.0 mm 0.00 in0.0 mm
12:50 AM 51.2°F10.7°C 48.6°F9.2°C 91% Calm Calm -- 29.59 in1002.0 mb - 0.00 in0.0 mm 0.00 in0.0 mm
01:00 AM 50.9°F10.5°C 48.4°F9.1°C 91% Calm Calm -- 29.59 in1002.0 mb - 0.00 in0.0 mm 0.00 in0.0 mm
01:10 AM 50.9°F10.5°C 48.3°F9.1°C 91% Calm Calm -- 29.59 in1002.0 mb - 0.00 in0.0 mm 0.00 in0.0 mm
01:20 AM 50.9°F10.5°C 48.4°F9.1°C 91% Calm Calm -- 29.59 in1002.0 mb - 0.00 in0.0 mm 0.00 in0.0 mm
01:30 AM 50.5°F10.3°C 48.0°F8.9°C 91% Calm Calm -- 29.59 in1002.0 mb - 0.00 in0.0 mm 0.00 in0.0 mm
01:40 AM 49.8°F9.9°C 47.3°F8.5°C 91% Calm Calm -- 29.59 in1002.0 mb - 0.00 in0.0 mm 0.00 in0.0 mm
01:50 AM 50.0°F10.0°C 47.8°F8.8°C 92% Calm Calm -- 29.60 in1002.4 mb - 0.00 in0.0 mm 0.00 in0.0 mm
02:00 AM 50.4°F10.2°C 48.2°F9.0°C 92% 2.3 mph NW3.7 kmh NW 3.5 mph5.6 kmh 29.60 in1002.4 mb - 0.00 in0.0 mm 0.00 in0.0 mm
02:10 AM 49.5°F9.7°C 47.3°F8.5°C 92% Calm Calm -- 29.59 in1002.0 mb - 0.00 in0.0 mm 0.00 in0.0 mm
02:20 AM 49.0°F9.4°C 46.8°F8.2°C 92% Calm Calm -- 29.59 in1002.0 mb - 0.00 in0.0 mm 0.00 in0.0 mm
02:30 AM 49.4°F9.7°C 47.5°F8.6°C 93% Calm Calm -- 29.59 in1002.0 mb - 0.00 in0.0 mm 0.00 in0.0 mm
02:40 AM 49.7°F9.8°C 47.8°F8.8°C 93% Calm Calm -- 29.59 in1002.0 mb - 0.00 in0.0 mm 0.00 in0.0 mm
02:50 AM 50.2°F10.1°C 48.5°F9.2°C 94% Calm Calm -- 29.58 in1001.7 mb - 0.00 in0.0 mm 0.00 in0.0 mm
03:00 AM 49.9°F9.9°C 48.0°F8.9°C 93% 1.2 mph SW1.9 kmh SW 2.3 mph3.7 kmh 29.59 in1002.0 mb - 0.00 in0.0 mm 0.00 in0.0 mm
03:10 AM 50.0°F10.0°C 48.1°F8.9°C 93% 1.2 mph WSW1.9 kmh WSW 2.3 mph3.7 kmh 29.59 in1002.0 mb - 0.01 in0.3 mm 0.01 in0.3 mm
03:20 AM 50.1°F10.1°C 48.4°F9.1°C 94% 2.3 mph SW3.7 kmh SW 3.5 mph5.6 kmh 29.59 in1002.0 mb - 0.00 in0.0 mm 0.01 in0.3 mm
03:30 AM 50.6°F10.3°C 49.0°F9.4°C 94% Calm Calm 3.5 mph5.6 kmh 29.60 in1002.4 mb - 0.00 in0.0 mm 0.01 in0.3 mm
03:40 AM 51.0°F10.6°C 49.3°F9.6°C 94% 2.3 mph WSW3.7 kmh WSW 3.5 mph5.6 kmh 29.61 in1002.7 mb - 0.00 in0.0 mm 0.01 in0.3 mm
03:50 AM 51.1°F10.6°C 49.4°F9.7°C 94% 3.5 mph WSW5.6 kmh WSW 4.6 mph7.4 kmh 29.61 in1002.7 mb - 0.00 in0.0 mm 0.01 in0.3 mm
04:00 AM 51.1°F10.6°C 49.5°F9.7°C 94% 4.6 mph WNW7.4 kmh WNW 6.9 mph11.1 kmh 29.61 in1002.7 mb - 0.00 in0.0 mm 0.01 in0.3 mm
04:10 AM 51.0°F10.6°C 49.4°F9.7°C 94% Calm Calm -- 29.61 in1002.7 mb - 0.00 in0.0 mm 0.01 in0.3 mm
04:20 AM 51.0°F10.6°C 49.3°F9.6°C 94% 2.3 mph WSW3.7 kmh WSW 3.5 mph5.6 kmh 29.62 in1003.0 mb - 0.00 in0.0 mm 0.01 in0.3 mm
04:30 AM 51.1°F10.6°C 49.4°F9.7°C 94% 3.5 mph WSW5.6 kmh WSW 6.9 mph11.1 kmh 29.62 in1003.0 mb - 0.00 in0.0 mm 0.01 in0.3 mm
04:40 AM 51.0°F10.6°C 49.4°F9.7°C 94% Calm Calm -- 29.63 in1003.4 mb - 0.00 in0.0 mm 0.01 in0.3 mm
04:50 AM 50.5°F10.3°C 48.8°F9.3°C 94% 3.5 mph WSW5.6 kmh WSW 4.6 mph7.4 kmh 29.63 in1003.4 mb - 0.00 in0.0 mm 0.01 in0.3 mm
05:00 AM 50.2°F10.1°C 48.5°F9.2°C 94% Calm Calm -- 29.63 in1003.4 mb - 0.00 in0.0 mm 0.01 in0.3 mm
05:10 AM 50.1°F10.1°C 48.5°F9.2°C 94% 3.5 mph WSW5.6 kmh WSW 3.5 mph5.6 kmh 29.64 in1003.7 mb - 0.00 in0.0 mm 0.01 in0.3 mm
05:20 AM 50.3°F10.2°C 48.7°F9.3°C 94% 1.2 mph WSW1.9 kmh WSW 3.5 mph5.6 kmh 29.64 in1003.7 mb - 0.00 in0.0 mm 0.01 in0.3 mm
05:30 AM 49.8°F9.9°C 48.1°F8.9°C 94% Calm Calm -- 29.64 in1003.7 mb - 0.00 in0.0 mm 0.01 in0.3 mm
05:40 AM 49.9°F9.9°C 48.2°F9.0°C 94% 2.3 mph WSW3.7 kmh WSW 3.5 mph5.6 kmh 29.64 in1003.7 mb - 0.00 in0.0 mm 0.01 in0.3 mm
05:50 AM 50.5°F10.3°C 49.1°F9.5°C 95% 2.3 mph WSW3.7 kmh WSW 3.5 mph5.6 kmh 29.64 in1003.7 mb - 0.00 in0.0 mm 0.01 in0.3 mm
06:00 AM 50.6°F10.3°C 49.2°F9.6°C 95% Calm Calm -- 29.64 in1003.7 mb - 0.00 in0.0 mm 0.01 in0.3 mm
06:10 AM 50.6°F10.3°C 49.2°F9.6°C 95% Calm Calm 3.5 mph5.6 kmh 29.65 in1004.1 mb - 0.00 in0.0 mm 0.01 in0.3 mm
06:20 AM 50.5°F10.3°C 49.1°F9.5°C 95% 2.3 mph WSW3.7 kmh WSW 3.5 mph5.6 kmh 29.66 in1004.4 mb - 0.00 in0.0 mm 0.01 in0.3 mm
06:30 AM 50.7°F10.4°C 49.3°F9.6°C 95% 1.2 mph WSW1.9 kmh WSW 3.5 mph5.6 kmh 29.66 in1004.4 mb - 0.00 in0.0 mm 0.01 in0.3 mm
06:40 AM 50.7°F10.4°C 49.3°F9.6°C 95% 2.3 mph WSW3.7 kmh WSW 3.5 mph5.6 kmh 29.66 in1004.4 mb - 0.00 in0.0 mm 0.01 in0.3 mm
06:50 AM 50.8°F10.4°C 49.4°F9.7°C 95% 1.2 mph WSW1.9 kmh WSW 2.3 mph3.7 kmh 29.66 in1004.4 mb - 0.00 in0.0 mm 0.01 in0.3 mm
07:00 AM 50.7°F10.4°C 49.3°F9.6°C 95% 2.3 mph WSW3.7 kmh WSW 3.5 mph5.6 kmh 29.66 in1004.4 mb - 0.00 in0.0 mm 0.01 in0.3 mm
07:10 AM 50.9°F10.5°C 49.5°F9.7°C 95% 1.2 mph WSW1.9 kmh WSW 2.3 mph3.7 kmh 29.66 in1004.4 mb - 0.00 in0.0 mm 0.01 in0.3 mm
07:20 AM 51.0°F10.6°C 49.6°F9.8°C 95% 2.3 mph WSW3.7 kmh WSW 3.5 mph5.6 kmh 29.67 in1004.7 mb - 0.01 in0.3 mm 0.02 in0.5 mm
07:30 AM 51.5°F10.8°C 50.1°F10.1°C 95% Calm Calm -- 29.68 in1005.1 mb - 0.00 in0.0 mm 0.02 in0.5 mm
07:40 AM 52.0°F11.1°C 50.6°F10.3°C 95% 1.2 mph WSW1.9 kmh WSW 3.5 mph5.6 kmh 29.68 in1005.1 mb - 0.00 in0.0 mm 0.02 in0.5 mm
07:50 AM 52.0°F11.1°C 50.6°F10.3°C 95% Calm Calm -- 29.68 in1005.1 mb - 0.00 in0.0 mm 0.02 in0.5 mm
08:00 AM 51.9°F11.1°C 50.5°F10.3°C 95% Calm Calm -- 29.69 in1005.4 mb - 0.00 in0.0 mm 0.02 in0.5 mm
08:10 AM 52.3°F11.3°C 50.9°F10.5°C 95% Calm Calm -- 29.69 in1005.4 mb - 0.00 in0.0 mm 0.02 in0.5 mm
08:20 AM 52.7°F11.5°C 51.3°F10.7°C 95% Calm Calm -- 29.69 in1005.4 mb - 0.00 in0.0 mm 0.02 in0.5 mm
08:30 AM 52.7°F11.5°C 51.3°F10.7°C 95% 1.2 mph NW1.9 kmh NW 3.5 mph5.6 kmh 29.69 in1005.4 mb - 0.00 in0.0 mm 0.02 in0.5 mm
08:40 AM 52.9°F11.6°C 51.5°F10.8°C 95% 1.2 mph NW1.9 kmh NW 2.3 mph3.7 kmh 29.69 in1005.4 mb - 0.00 in0.0 mm 0.02 in0.5 mm
08:50 AM 53.2°F11.8°C 51.8°F11.0°C 95% 1.2 mph NW1.9 kmh NW 2.3 mph3.7 kmh 29.70 in1005.8 mb - 0.00 in0.0 mm 0.02 in0.5 mm
09:00 AM 54.3°F12.4°C 52.9°F11.6°C 95% 1.2 mph NW1.9 kmh NW 1.2 mph1.9 kmh 29.70 in1005.8 mb - 0.00 in0.0 mm 0.02 in0.5 mm
09:10 AM 55.3°F12.9°C 53.9°F12.2°C 95% Calm Calm 3.5 mph5.6 kmh 29.69 in1005.4 mb - 0.00 in0.0 mm 0.02 in0.5 mm
09:20 AM 56.3°F13.5°C 54.9°F12.7°C 95% 1.2 mph NW1.9 kmh NW 3.5 mph5.6 kmh 29.69 in1005.4 mb - 0.00 in0.0 mm 0.02 in0.5 mm
09:30 AM 56.4°F13.6°C 54.4°F12.4°C 93% Calm Calm 2.3 mph3.7 kmh 29.69 in1005.4 mb - 0.00 in0.0 mm 0.02 in0.5 mm
09:40 AM 56.0°F13.3°C 53.7°F12.1°C 92% 1.2 mph NW1.9 kmh NW 2.3 mph3.7 kmh 29.69 in1005.4 mb - 0.00 in0.0 mm 0.02 in0.5 mm
09:50 AM 55.7°F13.2°C 53.4°F11.9°C 92% 1.2 mph NW1.9 kmh NW 3.5 mph5.6 kmh 29.69 in1005.4 mb - 0.00 in0.0 mm 0.02 in0.5 mm
10:00 AM 55.9°F13.3°C 53.6°F12.0°C 92% 2.3 mph NW3.7 kmh NW 3.5 mph5.6 kmh 29.69 in1005.4 mb - 0.00 in0.0 mm 0.02 in0.5 mm
10:10 AM 56.1°F13.4°C 53.5°F11.9°C 91% 3.5 mph NW5.6 kmh NW 3.5 mph5.6 kmh 29.69 in1005.4 mb - 0.00 in0.0 mm 0.02 in0.5 mm
10:20 AM 57.4°F14.1°C 54.8°F12.7°C 91% 1.2 mph NW1.9 kmh NW 5.8 mph9.3 kmh 29.69 in1005.4 mb - 0.00 in0.0 mm 0.02 in0.5 mm
10:30 AM 57.9°F14.4°C 54.4°F12.4°C 88% 1.2 mph NW1.9 kmh NW 4.6 mph7.4 kmh 29.69 in1005.4 mb - 0.00 in0.0 mm 0.02 in0.5 mm
10:40 AM 58.8°F14.9°C 54.3°F12.4°C 85% 4.6 mph NW7.4 kmh NW 8.1 mph13.0 kmh 29.69 in1005.4 mb - 0.00 in0.0 mm 0.02 in0.5 mm
10:50 AM 59.2°F15.1°C 54.3°F12.4°C 84% 4.6 mph WNW7.4 kmh WNW 10.4 mph16.7 kmh 29.70 in1005.8 mb - 0.00 in0.0 mm 0.02 in0.5 mm
11:00 AM 59.8°F15.4°C 54.3°F12.4°C 82% 4.6 mph NNW7.4 kmh NNW 9.2 mph14.8 kmh 29.70 in1005.8 mb - 0.00 in0.0 mm 0.02 in0.5 mm
11:10 AM 60.3°F15.7°C 53.8°F12.1°C 79% 6.9 mph WSW11.1 kmh WSW 11.5 mph18.5 kmh 29.70 in1005.8 mb - 0.00 in0.0 mm 0.02 in0.5 mm
11:20 AM 60.0°F15.6°C 52.8°F11.6°C 77% 4.6 mph WSW7.4 kmh WSW 5.8 mph9.3 kmh 29.70 in1005.8 mb - 0.00 in0.0 mm 0.02 in0.5 mm
11:30 AM 60.1°F15.6°C 53.6°F12.0°C 79% 3.5 mph NNW5.6 kmh NNW 9.2 mph14.8 kmh 29.69 in1005.4 mb - 0.00 in0.0 mm 0.02 in0.5 mm
11:40 AM 60.7°F15.9°C 53.5°F11.9°C 77% 6.9 mph NNW11.1 kmh NNW 11.5 mph18.5 kmh 29.70 in1005.8 mb - 0.00 in0.0 mm 0.02 in0.5 mm
11:50 AM 61.1°F16.2°C 53.5°F11.9°C 76% 4.6 mph NW7.4 kmh NW 8.1 mph13.0 kmh 29.70 in1005.8 mb - 0.00 in0.0 mm 0.02 in0.5 mm
12:00 PM 60.8°F16.0°C 53.2°F11.8°C 76% 2.3 mph NNW3.7 kmh NNW 2.3 mph3.7 kmh 29.69 in1005.4 mb - 0.00 in0.0 mm 0.02 in0.5 mm
12:10 PM 61.1°F16.2°C 52.7°F11.5°C 74% 9.2 mph W14.8 kmh W 12.7 mph20.4 kmh 29.70 in1005.8 mb - 0.00 in0.0 mm 0.02 in0.5 mm
12:20 PM 61.3°F16.3°C 53.3°F11.8°C 75% 5.8 mph WNW9.3 kmh WNW 8.1 mph13.0 kmh 29.70 in1005.8 mb - 0.00 in0.0 mm 0.02 in0.5 mm
12:30 PM 61.5°F16.4°C 53.5°F11.9°C 75% 6.9 mph NW11.1 kmh NW 10.4 mph16.7 kmh 29.69 in1005.4 mb - 0.00 in0.0 mm 0.02 in0.5 mm
12:40 PM 61.3°F16.3°C 53.3°F11.8°C 75% 8.1 mph W13.0 kmh W 12.7 mph20.4 kmh 29.69 in1005.4 mb - 0.00 in0.0 mm 0.02 in0.5 mm
12:50 PM 61.7°F16.5°C 53.7°F12.1°C 75% 8.1 mph NNW13.0 kmh NNW 10.4 mph16.7 kmh 29.69 in1005.4 mb - 0.00 in0.0 mm 0.02 in0.5 mm
01:00 PM 61.9°F16.6°C 53.9°F12.2°C 75% 5.8 mph N9.3 kmh N 9.2 mph14.8 kmh 29.68 in1005.1 mb - 0.00 in0.0 mm 0.02 in0.5 mm
01:10 PM 61.6°F16.4°C 53.6°F12.0°C 75% 5.8 mph WSW9.3 kmh WSW 8.1 mph13.0 kmh 29.68 in1005.1 mb - 0.00 in0.0 mm 0.02 in0.5 mm
01:20 PM 61.5°F16.4°C 52.8°F11.6°C 73% 5.8 mph WNW9.3 kmh WNW 8.1 mph13.0 kmh 29.68 in1005.1 mb - 0.00 in0.0 mm 0.02 in0.5 mm
01:30 PM 61.6°F16.4°C 52.5°F11.4°C 72% 8.1 mph WNW13.0 kmh WNW 12.7 mph20.4 kmh 29.67 in1004.7 mb - 0.00 in0.0 mm 0.02 in0.5 mm
01:40 PM 61.5°F16.4°C 52.4°F11.3°C 72% 5.8 mph W9.3 kmh W 11.5 mph18.5 kmh 29.67 in1004.7 mb - 0.00 in0.0 mm 0.02 in0.5 mm
01:50 PM 61.8°F16.6°C 53.1°F11.7°C 73% 3.5 mph N5.6 kmh N 5.8 mph9.3 kmh 29.66 in1004.4 mb - 0.00 in0.0 mm 0.02 in0.5 mm
02:00 PM 62.0°F16.7°C 53.2°F11.8°C 73% 3.5 mph NNW5.6 kmh NNW 11.5 mph18.5 kmh 29.66 in1004.4 mb - 0.00 in0.0 mm 0.02 in0.5 mm
02:10 PM 62.2°F16.8°C 53.8°F12.1°C 74% 2.3 mph NW3.7 kmh NW 8.1 mph13.0 kmh 29.66 in1004.4 mb - 0.00 in0.0 mm 0.02 in0.5 mm
02:20 PM 62.6°F17.0°C 53.8°F12.1°C 73% 8.1 mph NNW13.0 kmh NNW 12.7 mph20.4 kmh 29.66 in1004.4 mb - 0.00 in0.0 mm 0.02 in0.5 mm
02:30 PM 62.4°F16.9°C 53.6°F12.0°C 73% 8.1 mph WNW13.0 kmh WNW 11.5 mph18.5 kmh 29.66 in1004.4 mb - 0.00 in0.0 mm 0.02 in0.5 mm
02:40 PM 62.1°F16.7°C 53.3°F11.8°C 73% 4.6 mph WSW7.4 kmh WSW 6.9 mph11.1 kmh 29.65 in1004.1 mb - 0.00 in0.0 mm 0.02 in0.5 mm
02:50 PM 62.1°F16.7°C 53.4°F11.9°C 73% 6.9 mph NNW11.1 kmh NNW 10.4 mph16.7 kmh 29.66 in1004.4 mb - 0.00 in0.0 mm 0.02 in0.5 mm
03:00 PM 62.4°F16.9°C 54.0°F12.2°C 74% 5.8 mph NW9.3 kmh NW 10.4 mph16.7 kmh 29.66 in1004.4 mb - 0.00 in0.0 mm 0.02 in0.5 mm
03:10 PM 62.1°F16.7°C 53.7°F12.1°C 74% 3.5 mph NW5.6 kmh NW 6.9 mph11.1 kmh 29.66 in1004.4 mb - 0.00 in0.0 mm 0.02 in0.5 mm
03:20 PM 61.3°F16.3°C 53.3°F11.8°C 75% 6.9 mph NNW11.1 kmh NNW 11.5 mph18.5 kmh 29.66 in1004.4 mb - 0.00 in0.0 mm 0.02 in0.5 mm
03:30 PM 60.6°F15.9°C 53.0°F11.7°C 76% 5.8 mph NW9.3 kmh NW 11.5 mph18.5 kmh 29.65 in1004.1 mb - 0.00 in0.0 mm 0.02 in0.5 mm
03:40 PM 60.1°F15.6°C 53.2°F11.8°C 78% 3.5 mph NW5.6 kmh NW 4.6 mph7.4 kmh 29.65 in1004.1 mb - 0.00 in0.0 mm 0.02 in0.5 mm
03:50 PM 60.2°F15.7°C 53.0°F11.7°C 77% 4.6 mph WNW7.4 kmh WNW 11.5 mph18.5 kmh 29.66 in1004.4 mb - 0.00 in0.0 mm 0.02 in0.5 mm
04:00 PM 59.8°F15.4°C 52.9°F11.6°C 78% 4.6 mph W7.4 kmh W 11.5 mph18.5 kmh 29.66 in1004.4 mb - 0.00 in0.0 mm 0.02 in0.5 mm
04:10 PM 59.0°F15.0°C 52.5°F11.4°C 79% 3.5 mph NW5.6 kmh NW 4.6 mph7.4 kmh 29.66 in1004.4 mb - 0.00 in0.0 mm 0.02 in0.5 mm
04:20 PM 58.2°F14.6°C 51.7°F10.9°C 79% 2.3 mph WNW3.7 kmh WNW 3.5 mph5.6 kmh 29.65 in1004.1 mb - 0.00 in0.0 mm 0.02 in0.5 mm
04:30 PM 57.8°F14.3°C 52.4°F11.3°C 82% 2.3 mph NNW3.7 kmh NNW 6.9 mph11.1 kmh 29.65 in1004.1 mb - 0.00 in0.0 mm 0.02 in0.5 mm
04:40 PM 57.6°F14.2°C 52.5°F11.4°C 83% 2.3 mph WSW3.7 kmh WSW 3.5 mph5.6 kmh 29.65 in1004.1 mb - 0.00 in0.0 mm 0.02 in0.5 mm
04:50 PM 57.6°F14.2°C 52.5°F11.4°C 83% 1.2 mph WSW1.9 kmh WSW 5.8 mph9.3 kmh 29.65 in1004.1 mb - 0.00 in0.0 mm 0.02 in0.5 mm
05:00 PM 57.4°F14.1°C 52.3°F11.3°C 83% 3.5 mph WSW5.6 kmh WSW 9.2 mph14.8 kmh 29.65 in1004.1 mb - 0.00 in0.0 mm 0.02 in0.5 mm
05:10 PM 57.3°F14.1°C 51.9°F11.1°C 82% 5.8 mph NW9.3 kmh NW 6.9 mph11.1 kmh 29.64 in1003.7 mb - 0.00 in0.0 mm 0.02 in0.5 mm
05:20 PM 57.1°F13.9°C 52.0°F11.1°C 83% 2.3 mph WNW3.7 kmh WNW 6.9 mph11.1 kmh 29.64 in1003.7 mb - 0.00 in0.0 mm 0.02 in0.5 mm
05:30 PM 56.8°F13.8°C 51.7°F10.9°C 83% 2.3 mph WNW3.7 kmh WNW 3.5 mph5.6 kmh 29.64 in1003.7 mb - 0.00 in0.0 mm 0.02 in0.5 mm
05:40 PM 56.5°F13.6°C 51.4°F10.8°C 83% 1.2 mph NW1.9 kmh NW 3.5 mph5.6 kmh 29.64 in1003.7 mb - 0.00 in0.0 mm 0.02 in0.5 mm
05:50 PM 56.1°F13.4°C 51.3°F10.7°C 84% 2.3 mph NW3.7 kmh NW 4.6 mph7.4 kmh 29.64 in1003.7 mb - 0.00 in0.0 mm 0.02 in0.5 mm
06:00 PM 55.8°F13.2°C 51.1°F10.6°C 84% Calm Calm -- 29.64 in1003.7 mb - 0.00 in0.0 mm 0.02 in0.5 mm
06:10 PM 55.7°F13.2°C 50.9°F10.5°C 84% Calm Calm -- 29.64 in1003.7 mb - 0.00 in0.0 mm 0.02 in0.5 mm
06:20 PM 55.5°F13.1°C 51.1°F10.6°C 85% Calm Calm -- 29.64 in1003.7 mb - 0.00 in0.0 mm 0.02 in0.5 mm
06:30 PM 55.4°F13.0°C 50.9°F10.5°C 85% Calm Calm -- 29.65 in1004.1 mb - 0.00 in0.0 mm 0.02 in0.5 mm
06:40 PM 55.4°F13.0°C 51.3°F10.7°C 86% Calm Calm 3.5 mph5.6 kmh 29.65 in1004.1 mb - 0.00 in0.0 mm 0.02 in0.5 mm
06:50 PM 55.4°F13.0°C 51.3°F10.7°C 86% Calm Calm -- 29.65 in1004.1 mb - 0.00 in0.0 mm 0.02 in0.5 mm
07:00 PM 55.4°F13.0°C 51.3°F10.7°C 86% Calm Calm 3.5 mph5.6 kmh 29.64 in1003.7 mb - 0.00 in0.0 mm 0.02 in0.5 mm
07:10 PM 55.4°F13.0°C 51.6°F10.9°C 87% 1.2 mph N1.9 kmh N 4.6 mph7.4 kmh 29.64 in1003.7 mb - 0.00 in0.0 mm 0.02 in0.5 mm
07:20 PM 55.3°F12.9°C 51.5°F10.8°C 87% 1.2 mph NE1.9 kmh NE 2.3 mph3.7 kmh 29.63 in1003.4 mb - 0.00 in0.0 mm 0.02 in0.5 mm
07:30 PM 54.9°F12.7°C 51.2°F10.7°C 87% Calm Calm 1.2 mph1.9 kmh 29.62 in1003.0 mb - 0.00 in0.0 mm 0.02 in0.5 mm
07:40 PM 54.5°F12.5°C 50.7°F10.4°C 87% 1.2 mph NE1.9 kmh NE 2.3 mph3.7 kmh 29.62 in1003.0 mb - 0.00 in0.0 mm 0.02 in0.5 mm
07:50 PM 54.2°F12.3°C 50.7°F10.4°C 88% 4.6 mph NE7.4 kmh NE 4.6 mph7.4 kmh 29.63 in1003.4 mb - 0.00 in0.0 mm 0.02 in0.5 mm
08:00 PM 54.0°F12.2°C 50.2°F10.1°C 87% Calm Calm 1.2 mph1.9 kmh 29.63 in1003.4 mb - 0.00 in0.0 mm 0.02 in0.5 mm
08:10 PM 53.9°F12.2°C 50.4°F10.2°C 88% 1.2 mph ENE1.9 kmh ENE 3.5 mph5.6 kmh 29.63 in1003.4 mb - 0.00 in0.0 mm 0.02 in0.5 mm
08:20 PM 53.9°F12.2°C 50.4°F10.2°C 88% 1.2 mph ENE1.9 kmh ENE 1.2 mph1.9 kmh 29.63 in1003.4 mb - 0.00 in0.0 mm 0.02 in0.5 mm
08:30 PM 53.7°F12.1°C 50.3°F10.2°C 88% Calm Calm -- 29.63 in1003.4 mb - 0.00 in0.0 mm 0.02 in0.5 mm
08:40 PM 53.7°F12.1°C 50.2°F10.1°C 88% 1.2 mph ENE1.9 kmh ENE -- 29.62 in1003.0 mb - 0.00 in0.0 mm 0.02 in0.5 mm
08:50 PM 53.7°F12.1°C 50.2°F10.1°C 88% 2.3 mph NE3.7 kmh NE 3.5 mph5.6 kmh 29.63 in1003.4 mb - 0.00 in0.0 mm 0.02 in0.5 mm
09:00 PM 53.6°F12.0°C 50.1°F10.1°C 88% 1.2 mph ENE1.9 kmh ENE 2.3 mph3.7 kmh 29.62 in1003.0 mb - 0.00 in0.0 mm 0.02 in0.5 mm
09:10 PM 53.5°F11.9°C 50.0°F10.0°C 88% 3.5 mph ENE5.6 kmh ENE 3.5 mph5.6 kmh 29.62 in1003.0 mb - 0.00 in0.0 mm 0.02 in0.5 mm
09:20 PM 53.4°F11.9°C 49.9°F9.9°C 88% 2.3 mph ENE3.7 kmh ENE 4.6 mph7.4 kmh 29.62 in1003.0 mb - 0.00 in0.0 mm 0.02 in0.5 mm
09:30 PM 53.2°F11.8°C 49.7°F9.8°C 88% 1.2 mph NE1.9 kmh NE 3.5 mph5.6 kmh 29.62 in1003.0 mb - 0.00 in0.0 mm 0.02 in0.5 mm
09:40 PM 53.2°F11.8°C 49.7°F9.8°C 88% 1.2 mph NE1.9 kmh NE 2.3 mph3.7 kmh 29.62 in1003.0 mb - 0.00 in0.0 mm 0.02 in0.5 mm
09:50 PM 53.2°F11.8°C 49.7°F9.8°C 88% 1.2 mph ENE1.9 kmh ENE 3.5 mph5.6 kmh 29.61 in1002.7 mb - 0.00 in0.0 mm 0.02 in0.5 mm
10:00 PM 53.3°F11.8°C 49.9°F9.9°C 88% 2.3 mph ENE3.7 kmh ENE 3.5 mph5.6 kmh 29.61 in1002.7 mb - 0.00 in0.0 mm 0.02 in0.5 mm
10:10 PM 53.4°F11.9°C 49.6°F9.8°C 87% 2.3 mph ENE3.7 kmh ENE 4.6 mph7.4 kmh 29.61 in1002.7 mb - 0.00 in0.0 mm 0.02 in0.5 mm
10:20 PM 53.4°F11.9°C 49.6°F9.8°C 87% 2.3 mph NE3.7 kmh NE 3.5 mph5.6 kmh 29.60 in1002.4 mb - 0.00 in0.0 mm 0.02 in0.5 mm
10:30 PM 53.5°F11.9°C 49.7°F9.8°C 87% 1.2 mph ENE1.9 kmh ENE 3.5 mph5.6 kmh 29.60 in1002.4 mb - 0.00 in0.0 mm 0.02 in0.5 mm
10:40 PM 53.6°F12.0°C 49.5°F9.7°C 86% 1.2 mph NE1.9 kmh NE 3.5 mph5.6 kmh 29.59 in1002.0 mb - 0.00 in0.0 mm 0.02 in0.5 mm
10:50 PM 53.7°F12.1°C 49.6°F9.8°C 86% 1.2 mph ENE1.9 kmh ENE 2.3 mph3.7 kmh 29.59 in1002.0 mb - 0.00 in0.0 mm 0.02 in0.5 mm
11:00 PM 53.8°F12.1°C 49.7°F9.8°C 86% 1.2 mph ENE1.9 kmh ENE 5.8 mph9.3 kmh 29.58 in1001.7 mb - 0.00 in0.0 mm 0.02 in0.5 mm
11:10 PM 53.9°F12.2°C 49.8°F9.9°C 86% 2.3 mph NE3.7 kmh NE 3.5 mph5.6 kmh 29.58 in1001.7 mb - 0.00 in0.0 mm 0.02 in0.5 mm
11:20 PM 53.9°F12.2°C 50.1°F10.1°C 87% 2.3 mph ENE3.7 kmh ENE 3.5 mph5.6 kmh 29.57 in1001.4 mb - 0.00 in0.0 mm 0.02 in0.5 mm
11:30 PM 53.7°F12.1°C 50.2°F10.1°C 88% 2.3 mph ENE3.7 kmh ENE 3.5 mph5.6 kmh 29.56 in1001.0 mb - 0.00 in0.0 mm 0.02 in0.5 mm
11:40 PM 53.4°F11.9°C 50.3°F10.2°C 89% 2.3 mph ENE3.7 kmh ENE 3.5 mph5.6 kmh 29.56 in1001.0 mb - 0.01 in0.3 mm 0.02 in0.5 mm
11:50 PM 53.2°F11.8°C 50.1°F10.1°C 89% 1.2 mph ENE1.9 kmh ENE 2.3 mph3.7 kmh 29.56 in1001.0 mb - 0.01 in0.3 mm 0.03 in0.8 mm